sensor_id;sensor_type;location;lat;lon;timestamp;P1;durP1;ratioP1;P2;durP2;ratioP2
8540;SDS011;4308;51.294;6.590;2022-09-09T00:00:12;1.57;;;1.00;;
8540;SDS011;4308;51.294;6.590;2022-09-09T00:02:40;2.50;;;0.77;;
8540;SDS011;4308;51.294;6.590;2022-09-09T00:10:29;1.43;;;0.80;;
8540;SDS011;4308;51.294;6.590;2022-09-09T00:15:31;3.33;;;0.93;;
8540;SDS011;4308;51.294;6.590;2022-09-09T00:18:07;0.70;;;0.70;;
8540;SDS011;4308;51.294;6.590;2022-09-09T00:20:40;1.20;;;1.07;;
8540;SDS011;4308;51.294;6.590;2022-09-09T00:28:18;1.30;;;1.20;;
8540;SDS011;4308;51.294;6.590;2022-09-09T00:30:46;1.53;;;1.00;;
8540;SDS011;4308;51.294;6.590;2022-09-09T00:33:15;5.00;;;1.23;;
8540;SDS011;4308;51.294;6.590;2022-09-09T00:35:44;1.53;;;0.90;;
8540;SDS011;4308;51.294;6.590;2022-09-09T00:38:18;1.77;;;0.90;;
8540;SDS011;4308;51.294;6.590;2022-09-09T00:43:30;2.10;;;1.17;;
8540;SDS011;4308;51.294;6.590;2022-09-09T00:51:11;2.50;;;1.53;;
8540;SDS011;4308;51.294;6.590;2022-09-09T00:56:28;2.63;;;1.37;;
8540;SDS011;4308;51.294;6.590;2022-09-09T01:01:31;1.93;;;1.20;;
8540;SDS011;4308;51.294;6.590;2022-09-09T01:03:59;3.37;;;1.30;;
8540;SDS011;4308;51.294;6.590;2022-09-09T01:06:34;3.53;;;1.30;;
8540;SDS011;4308;51.294;6.590;2022-09-09T01:17:11;3.97;;;1.20;;
8540;SDS011;4308;51.294;6.590;2022-09-09T01:27:22;1.33;;;1.23;;
8540;SDS011;4308;51.294;6.590;2022-09-09T01:29:50;4.90;;;1.77;;
8540;SDS011;4308;51.294;6.590;2022-09-09T01:35:04;4.03;;;1.27;;
8540;SDS011;4308;51.294;6.590;2022-09-09T01:37:32;5.20;;;1.63;;
8540;SDS011;4308;51.294;6.590;2022-09-09T01:40:00;3.43;;;1.23;;
8540;SDS011;4308;51.294;6.590;2022-09-09T01:42:28;2.07;;;1.27;;
8540;SDS011;4308;51.294;6.590;2022-09-09T01:44:56;1.70;;;1.20;;
8540;SDS011;4308;51.294;6.590;2022-09-09T01:47:23;2.43;;;1.03;;
8540;SDS011;4308;51.294;6.590;2022-09-09T01:49:51;3.53;;;1.30;;
8540;SDS011;4308;51.294;6.590;2022-09-09T01:52:18;2.47;;;1.30;;
8540;SDS011;4308;51.294;6.590;2022-09-09T01:54:46;3.53;;;1.10;;
8540;SDS011;4308;51.294;6.590;2022-09-09T01:57:21;2.70;;;1.00;;
8540;SDS011;4308;51.294;6.590;2022-09-09T02:02:18;4.23;;;1.33;;
8540;SDS011;4308;51.294;6.590;2022-09-09T02:04:53;3.77;;;1.93;;
8540;SDS011;4308;51.294;6.590;2022-09-09T02:07:39;1.83;;;1.23;;
8540;SDS011;4308;51.294;6.590;2022-09-09T02:12:35;2.07;;;1.13;;
8540;SDS011;4308;51.294;6.590;2022-09-09T02:15:05;1.43;;;1.23;;
8540;SDS011;4308;51.294;6.590;2022-09-09T02:17:35;4.60;;;2.43;;
8540;SDS011;4308;51.294;6.590;2022-09-09T02:20:10;2.43;;;1.60;;
8540;SDS011;4308;51.294;6.590;2022-09-09T02:22:39;5.90;;;1.63;;
8540;SDS011;4308;51.294;6.590;2022-09-09T02:25:08;2.60;;;1.40;;
8540;SDS011;4308;51.294;6.590;2022-09-09T02:27:37;1.40;;;1.20;;
8540;SDS011;4308;51.294;6.590;2022-09-09T02:30:04;2.67;;;1.60;;
8540;SDS011;4308;51.294;6.590;2022-09-09T02:32:32;1.83;;;1.30;;
8540;SDS011;4308;51.294;6.590;2022-09-09T02:35:03;3.20;;;1.23;;
8540;SDS011;4308;51.294;6.590;2022-09-09T02:37:37;1.90;;;1.10;;
8540;SDS011;4308;51.294;6.590;2022-09-09T02:40:05;3.97;;;1.33;;
8540;SDS011;4308;51.294;6.590;2022-09-09T02:42:40;2.13;;;1.27;;
8540;SDS011;4308;51.294;6.590;2022-09-09T02:45:08;3.60;;;1.90;;
8540;SDS011;4308;51.294;6.590;2022-09-09T02:53:08;3.73;;;1.27;;
8540;SDS011;4308;51.294;6.590;2022-09-09T02:55:41;5.40;;;1.50;;
8540;SDS011;4308;51.294;6.590;2022-09-09T02:58:13;7.23;;;1.30;;
8540;SDS011;4308;51.294;6.590;2022-09-09T03:00:41;1.60;;;1.20;;
8540;SDS011;4308;51.294;6.590;2022-09-09T03:03:09;5.50;;;1.20;;
8540;SDS011;4308;51.294;6.590;2022-09-09T03:05:36;2.30;;;1.10;;
8540;SDS011;4308;51.294;6.590;2022-09-09T03:08:04;3.63;;;1.50;;
8540;SDS011;4308;51.294;6.590;2022-09-09T03:10:32;4.43;;;1.30;;
8540;SDS011;4308;51.294;6.590;2022-09-09T03:13:00;3.10;;;1.47;;
8540;SDS011;4308;51.294;6.590;2022-09-09T03:15:27;2.83;;;1.00;;
8540;SDS011;4308;51.294;6.590;2022-09-09T03:17:55;5.97;;;1.10;;
8540;SDS011;4308;51.294;6.590;2022-09-09T03:20:23;3.57;;;1.77;;
8540;SDS011;4308;51.294;6.590;2022-09-09T03:22:51;1.87;;;1.20;;
8540;SDS011;4308;51.294;6.590;2022-09-09T03:25:19;1.80;;;1.20;;
8540;SDS011;4308;51.294;6.590;2022-09-09T03:27:47;3.70;;;1.27;;
8540;SDS011;4308;51.294;6.590;2022-09-09T03:30:14;5.20;;;1.30;;
8540;SDS011;4308;51.294;6.590;2022-09-09T03:32:42;3.07;;;1.40;;
8540;SDS011;4308;51.294;6.590;2022-09-09T03:35:14;1.90;;;1.30;;
8540;SDS011;4308;51.294;6.590;2022-09-09T03:37:42;2.70;;;1.60;;
8540;SDS011;4308;51.294;6.590;2022-09-09T03:40:09;2.67;;;1.60;;
8540;SDS011;4308;51.294;6.590;2022-09-09T03:42:37;3.97;;;1.53;;
8540;SDS011;4308;51.294;6.590;2022-09-09T03:45:06;5.30;;;1.60;;
8540;SDS011;4308;51.294;6.590;2022-09-09T03:47:37;3.83;;;1.30;;
8540;SDS011;4308;51.294;6.590;2022-09-09T03:50:05;2.03;;;1.37;;
8540;SDS011;4308;51.294;6.590;2022-09-09T03:52:34;4.80;;;1.43;;
8540;SDS011;4308;51.294;6.590;2022-09-09T03:55:01;7.13;;;1.50;;
8540;SDS011;4308;51.294;6.590;2022-09-09T03:57:29;4.03;;;1.57;;
8540;SDS011;4308;51.294;6.590;2022-09-09T03:59:56;4.03;;;1.60;;
8540;SDS011;4308;51.294;6.590;2022-09-09T04:02:24;4.40;;;2.00;;
8540;SDS011;4308;51.294;6.590;2022-09-09T04:04:51;5.53;;;1.57;;
8540;SDS011;4308;51.294;6.590;2022-09-09T04:07:19;3.77;;;1.50;;
8540;SDS011;4308;51.294;6.590;2022-09-09T04:09:46;3.43;;;1.60;;
8540;SDS011;4308;51.294;6.590;2022-09-09T04:12:14;4.00;;;1.80;;
8540;SDS011;4308;51.294;6.590;2022-09-09T04:14:41;2.87;;;1.70;;
8540;SDS011;4308;51.294;6.590;2022-09-09T04:17:09;4.97;;;1.60;;
8540;SDS011;4308;51.294;6.590;2022-09-09T04:19:36;2.07;;;1.53;;
8540;SDS011;4308;51.294;6.590;2022-09-09T04:22:04;7.30;;;1.57;;
8540;SDS011;4308;51.294;6.590;2022-09-09T04:24:31;3.13;;;1.50;;
8540;SDS011;4308;51.294;6.590;2022-09-09T04:26:59;4.03;;;1.40;;
8540;SDS011;4308;51.294;6.590;2022-09-09T04:29:26;2.23;;;1.50;;
8540;SDS011;4308;51.294;6.590;2022-09-09T04:31:54;2.93;;;1.50;;
8540;SDS011;4308;51.294;6.590;2022-09-09T04:34:22;3.70;;;1.67;;
8540;SDS011;4308;51.294;6.590;2022-09-09T04:36:49;3.33;;;1.80;;
8540;SDS011;4308;51.294;6.590;2022-09-09T04:39:17;6.47;;;2.23;;
8540;SDS011;4308;51.294;6.590;2022-09-09T04:41:44;9.93;;;2.70;;
8540;SDS011;4308;51.294;6.590;2022-09-09T04:44:12;10.97;;;2.77;;
8540;SDS011;4308;51.294;6.590;2022-09-09T04:46:41;10.60;;;2.03;;
8540;SDS011;4308;51.294;6.590;2022-09-09T04:51:48;4.50;;;1.57;;
8540;SDS011;4308;51.294;6.590;2022-09-09T04:54:16;5.83;;;2.07;;
8540;SDS011;4308;51.294;6.590;2022-09-09T04:56:43;3.57;;;1.77;;
8540;SDS011;4308;51.294;6.590;2022-09-09T04:59:11;6.07;;;2.53;;
8540;SDS011;4308;51.294;6.590;2022-09-09T05:01:40;2.70;;;1.30;;
8540;SDS011;4308;51.294;6.590;2022-09-09T05:04:07;4.13;;;1.73;;
8540;SDS011;4308;51.294;6.590;2022-09-09T05:06:35;9.00;;;1.80;;
8540;SDS011;4308;51.294;6.590;2022-09-09T05:09:02;4.73;;;1.63;;
8540;SDS011;4308;51.294;6.590;2022-09-09T05:11:31;4.10;;;1.67;;
8540;SDS011;4308;51.294;6.590;2022-09-09T05:13:58;4.03;;;1.60;;
8540;SDS011;4308;51.294;6.590;2022-09-09T05:16:26;3.40;;;1.33;;
8540;SDS011;4308;51.294;6.590;2022-09-09T05:18:54;2.70;;;1.33;;
8540;SDS011;4308;51.294;6.590;2022-09-09T05:21:22;7.10;;;1.87;;
8540;SDS011;4308;51.294;6.590;2022-09-09T05:23:49;9.33;;;3.50;;
8540;SDS011;4308;51.294;6.590;2022-09-09T05:26:18;3.70;;;1.50;;
8540;SDS011;4308;51.294;6.590;2022-09-09T05:28:45;5.33;;;1.57;;
8540;SDS011;4308;51.294;6.590;2022-09-09T05:31:13;5.67;;;1.70;;
8540;SDS011;4308;51.294;6.590;2022-09-09T05:33:42;3.97;;;1.37;;
8540;SDS011;4308;51.294;6.590;2022-09-09T05:36:10;5.07;;;2.17;;
8540;SDS011;4308;51.294;6.590;2022-09-09T05:38:38;8.93;;;1.90;;
8540;SDS011;4308;51.294;6.590;2022-09-09T05:41:06;5.80;;;1.87;;
8540;SDS011;4308;51.294;6.590;2022-09-09T05:43:34;3.37;;;1.70;;
8540;SDS011;4308;51.294;6.590;2022-09-09T05:46:05;7.97;;;2.63;;
8540;SDS011;4308;51.294;6.590;2022-09-09T05:48:34;2.47;;;1.37;;
8540;SDS011;4308;51.294;6.590;2022-09-09T05:51:02;8.30;;;2.10;;
8540;SDS011;4308;51.294;6.590;2022-09-09T05:53:30;7.90;;;1.83;;
8540;SDS011;4308;51.294;6.590;2022-09-09T05:55:59;5.77;;;1.60;;
8540;SDS011;4308;51.294;6.590;2022-09-09T05:58:27;6.40;;;1.70;;
8540;SDS011;4308;51.294;6.590;2022-09-09T06:01:02;12.27;;;3.20;;
8540;SDS011;4308;51.294;6.590;2022-09-09T06:03:29;5.30;;;1.30;;
8540;SDS011;4308;51.294;6.590;2022-09-09T06:06:00;5.13;;;1.30;;
8540;SDS011;4308;51.294;6.590;2022-09-09T06:08:28;4.00;;;1.40;;
8540;SDS011;4308;51.294;6.590;2022-09-09T06:11:00;6.83;;;1.83;;
8540;SDS011;4308;51.294;6.590;2022-09-09T06:13:28;5.50;;;1.50;;
8540;SDS011;4308;51.294;6.590;2022-09-09T06:15:56;6.40;;;1.40;;
8540;SDS011;4308;51.294;6.590;2022-09-09T06:18:24;10.47;;;1.93;;
8540;SDS011;4308;51.294;6.590;2022-09-09T06:23:22;4.97;;;1.60;;
8540;SDS011;4308;51.294;6.590;2022-09-09T06:25:49;1.63;;;1.43;;
8540;SDS011;4308;51.294;6.590;2022-09-09T06:28:17;5.43;;;1.90;;
8540;SDS011;4308;51.294;6.590;2022-09-09T06:30:45;6.47;;;1.63;;
8540;SDS011;4308;51.294;6.590;2022-09-09T06:33:12;3.57;;;1.60;;
8540;SDS011;4308;51.294;6.590;2022-09-09T06:35:40;4.20;;;1.73;;
8540;SDS011;4308;51.294;6.590;2022-09-09T06:38:07;5.03;;;1.50;;
8540;SDS011;4308;51.294;6.590;2022-09-09T06:40:35;4.87;;;1.23;;
8540;SDS011;4308;51.294;6.590;2022-09-09T06:43:02;4.40;;;2.60;;
8540;SDS011;4308;51.294;6.590;2022-09-09T06:45:30;7.23;;;2.33;;
8540;SDS011;4308;51.294;6.590;2022-09-09T06:47:57;5.17;;;1.97;;
8540;SDS011;4308;51.294;6.590;2022-09-09T06:50:25;5.87;;;1.53;;
8540;SDS011;4308;51.294;6.590;2022-09-09T06:52:52;4.77;;;1.93;;
8540;SDS011;4308;51.294;6.590;2022-09-09T06:55:20;3.80;;;1.60;;
8540;SDS011;4308;51.294;6.590;2022-09-09T06:57:47;6.60;;;1.80;;
8540;SDS011;4308;51.294;6.590;2022-09-09T07:00:15;3.17;;;1.73;;
8540;SDS011;4308;51.294;6.590;2022-09-09T07:02:42;1.77;;;1.07;;
8540;SDS011;4308;51.294;6.590;2022-09-09T07:05:10;1.90;;;1.30;;
8540;SDS011;4308;51.294;6.590;2022-09-09T07:07:37;3.27;;;1.67;;
8540;SDS011;4308;51.294;6.590;2022-09-09T07:10:05;5.60;;;1.50;;
8540;SDS011;4308;51.294;6.590;2022-09-09T07:12:32;4.17;;;1.60;;
8540;SDS011;4308;51.294;6.590;2022-09-09T07:15:00;3.23;;;1.20;;
8540;SDS011;4308;51.294;6.590;2022-09-09T07:17:28;2.73;;;1.10;;
8540;SDS011;4308;51.294;6.590;2022-09-09T07:19:55;5.70;;;1.70;;
8540;SDS011;4308;51.294;6.590;2022-09-09T07:22:22;3.20;;;1.63;;
8540;SDS011;4308;51.294;6.590;2022-09-09T07:24:50;7.77;;;1.93;;
8540;SDS011;4308;51.294;6.590;2022-09-09T07:27:18;9.20;;;1.73;;
8540;SDS011;4308;51.294;6.590;2022-09-09T07:29:45;3.97;;;1.50;;
8540;SDS011;4308;51.294;6.590;2022-09-09T07:32:13;2.53;;;1.40;;
8540;SDS011;4308;51.294;6.590;2022-09-09T07:34:40;4.60;;;1.40;;
8540;SDS011;4308;51.294;6.590;2022-09-09T07:37:08;6.50;;;1.27;;
8540;SDS011;4308;51.294;6.590;2022-09-09T07:39:35;6.50;;;1.97;;
8540;SDS011;4308;51.294;6.590;2022-09-09T07:42:03;2.87;;;1.37;;
8540;SDS011;4308;51.294;6.590;2022-09-09T07:44:30;4.30;;;1.27;;
8540;SDS011;4308;51.294;6.590;2022-09-09T07:46:58;1.77;;;1.10;;
8540;SDS011;4308;51.294;6.590;2022-09-09T07:49:25;5.97;;;1.50;;
8540;SDS011;4308;51.294;6.590;2022-09-09T07:51:58;4.30;;;1.50;;
8540;SDS011;4308;51.294;6.590;2022-09-09T07:54:26;7.27;;;1.73;;
8540;SDS011;4308;51.294;6.590;2022-09-09T07:56:53;3.60;;;1.03;;
8540;SDS011;4308;51.294;6.590;2022-09-09T07:59:21;2.77;;;1.33;;
8540;SDS011;4308;51.294;6.590;2022-09-09T08:01:49;3.73;;;0.93;;
8540;SDS011;4308;51.294;6.590;2022-09-09T08:04:17;1.83;;;1.00;;
8540;SDS011;4308;51.294;6.590;2022-09-09T08:06:49;2.87;;;1.07;;
8540;SDS011;4308;51.294;6.590;2022-09-09T08:09:17;6.47;;;1.40;;
8540;SDS011;4308;51.294;6.590;2022-09-09T08:11:44;3.07;;;1.33;;
8540;SDS011;4308;51.294;6.590;2022-09-09T08:14:12;3.63;;;1.63;;
8540;SDS011;4308;51.294;6.590;2022-09-09T08:16:41;4.00;;;1.63;;
8540;SDS011;4308;51.294;6.590;2022-09-09T08:19:10;4.13;;;1.50;;
8540;SDS011;4308;51.294;6.590;2022-09-09T08:21:38;7.00;;;1.40;;
8540;SDS011;4308;51.294;6.590;2022-09-09T08:24:07;3.83;;;1.50;;
8540;SDS011;4308;51.294;6.590;2022-09-09T08:26:39;4.53;;;1.33;;
8540;SDS011;4308;51.294;6.590;2022-09-09T08:29:08;4.93;;;1.20;;
8540;SDS011;4308;51.294;6.590;2022-09-09T08:31:36;3.20;;;0.93;;
8540;SDS011;4308;51.294;6.590;2022-09-09T08:34:04;2.20;;;1.47;;
8540;SDS011;4308;51.294;6.590;2022-09-09T08:36:34;9.97;;;1.40;;
8540;SDS011;4308;51.294;6.590;2022-09-09T08:39:02;6.10;;;1.20;;
8540;SDS011;4308;51.294;6.590;2022-09-09T08:46:51;4.10;;;1.13;;
8540;SDS011;4308;51.294;6.590;2022-09-09T08:51:55;4.00;;;1.20;;
8540;SDS011;4308;51.294;6.590;2022-09-09T08:54:23;2.07;;;1.00;;
8540;SDS011;4308;51.294;6.590;2022-09-09T08:57:20;3.20;;;1.23;;
8540;SDS011;4308;51.294;6.590;2022-09-09T08:59:49;3.90;;;1.10;;
8540;SDS011;4308;51.294;6.590;2022-09-09T09:02:20;2.63;;;1.10;;
8540;SDS011;4308;51.294;6.590;2022-09-09T09:04:56;2.80;;;1.27;;
8540;SDS011;4308;51.294;6.590;2022-09-09T09:13:02;4.73;;;0.80;;
8540;SDS011;4308;51.294;6.590;2022-09-09T09:15:31;2.20;;;0.97;;
8540;SDS011;4308;51.294;6.590;2022-09-09T09:18:01;3.60;;;1.23;;
8540;SDS011;4308;51.294;6.590;2022-09-09T09:20:40;2.47;;;1.00;;
8540;SDS011;4308;51.294;6.590;2022-09-09T09:23:12;1.53;;;1.07;;
8540;SDS011;4308;51.294;6.590;2022-09-09T09:25:43;3.97;;;1.20;;
8540;SDS011;4308;51.294;6.590;2022-09-09T09:28:24;2.93;;;1.00;;
8540;SDS011;4308;51.294;6.590;2022-09-09T09:30:53;3.80;;;1.43;;
8540;SDS011;4308;51.294;6.590;2022-09-09T09:35:50;3.73;;;1.00;;
8540;SDS011;4308;51.294;6.590;2022-09-09T09:38:18;2.33;;;0.80;;
8540;SDS011;4308;51.294;6.590;2022-09-09T09:41:06;3.03;;;1.10;;
8540;SDS011;4308;51.294;6.590;2022-09-09T09:43:34;5.37;;;1.20;;
8540;SDS011;4308;51.294;6.590;2022-09-09T09:46:03;4.90;;;0.90;;
8540;SDS011;4308;51.294;6.590;2022-09-09T09:48:43;1.10;;;0.97;;
8540;SDS011;4308;51.294;6.590;2022-09-09T09:51:13;4.27;;;1.20;;
8540;SDS011;4308;51.294;6.590;2022-09-09T09:53:41;3.80;;;1.37;;
8540;SDS011;4308;51.294;6.590;2022-09-09T09:56:09;2.67;;;0.93;;
8540;SDS011;4308;51.294;6.590;2022-09-09T10:01:23;2.23;;;0.90;;
8540;SDS011;4308;51.294;6.590;2022-09-09T10:03:52;3.40;;;1.37;;
8540;SDS011;4308;51.294;6.590;2022-09-09T10:06:32;6.57;;;1.40;;
8540;SDS011;4308;51.294;6.590;2022-09-09T10:09:01;1.87;;;1.00;;
8540;SDS011;4308;51.294;6.590;2022-09-09T10:14:12;1.77;;;0.83;;
8540;SDS011;4308;51.294;6.590;2022-09-09T10:16:51;2.50;;;0.70;;
8540;SDS011;4308;51.294;6.590;2022-09-09T10:19:25;0.80;;;0.70;;
8540;SDS011;4308;51.294;6.590;2022-09-09T10:27:21;3.97;;;1.00;;
8540;SDS011;4308;51.294;6.590;2022-09-09T10:32:41;6.60;;;1.07;;
8540;SDS011;4308;51.294;6.590;2022-09-09T10:35:14;2.77;;;1.40;;
8540;SDS011;4308;51.294;6.590;2022-09-09T10:40:29;3.23;;;1.00;;
8540;SDS011;4308;51.294;6.590;2022-09-09T10:43:01;1.47;;;1.00;;
8540;SDS011;4308;51.294;6.590;2022-09-09T10:45:40;1.67;;;0.70;;
8540;SDS011;4308;51.294;6.590;2022-09-09T10:48:19;2.37;;;0.97;;
8540;SDS011;4308;51.294;6.590;2022-09-09T10:50:55;4.03;;;0.80;;
8540;SDS011;4308;51.294;6.590;2022-09-09T10:55:59;1.67;;;0.83;;
8540;SDS011;4308;51.294;6.590;2022-09-09T10:58:31;6.47;;;1.27;;
8540;SDS011;4308;51.294;6.590;2022-09-09T11:01:01;2.13;;;1.30;;
8540;SDS011;4308;51.294;6.590;2022-09-09T11:03:31;3.97;;;0.90;;
8540;SDS011;4308;51.294;6.590;2022-09-09T11:08:26;2.30;;;0.70;;
8540;SDS011;4308;51.294;6.590;2022-09-09T11:16:00;2.23;;;0.83;;
8540;SDS011;4308;51.294;6.590;2022-09-09T11:18:28;1.70;;;0.70;;
8540;SDS011;4308;51.294;6.590;2022-09-09T11:20:58;4.00;;;0.73;;
8540;SDS011;4308;51.294;6.590;2022-09-09T11:23:36;2.93;;;0.83;;
8540;SDS011;4308;51.294;6.590;2022-09-09T11:26:07;3.73;;;1.53;;
8540;SDS011;4308;51.294;6.590;2022-09-09T11:28:44;2.60;;;0.70;;
8540;SDS011;4308;51.294;6.590;2022-09-09T11:41:43;1.23;;;0.60;;
8540;SDS011;4308;51.294;6.590;2022-09-09T11:44:18;0.93;;;0.80;;
8540;SDS011;4308;51.294;6.590;2022-09-09T11:46:48;0.80;;;0.57;;
8540;SDS011;4308;51.294;6.590;2022-09-09T11:49:27;3.83;;;1.17;;
8540;SDS011;4308;51.294;6.590;2022-09-09T11:51:56;1.10;;;0.73;;
8540;SDS011;4308;51.294;6.590;2022-09-09T11:56:53;0.80;;;0.60;;
8540;SDS011;4308;51.294;6.590;2022-09-09T12:01:50;1.53;;;0.60;;
8540;SDS011;4308;51.294;6.590;2022-09-09T12:06:52;4.33;;;1.20;;
8540;SDS011;4308;51.294;6.590;2022-09-09T12:12:17;2.30;;;1.13;;
8540;SDS011;4308;51.294;6.590;2022-09-09T12:17:23;3.07;;;1.47;;
8540;SDS011;4308;51.294;6.590;2022-09-09T12:20:29;3.50;;;1.20;;
8540;SDS011;4308;51.294;6.590;2022-09-09T12:31:12;2.07;;;1.20;;
8540;SDS011;4308;51.294;6.590;2022-09-09T12:33:42;4.93;;;1.50;;
8540;SDS011;4308;51.294;6.590;2022-09-09T12:36:45;6.23;;;1.93;;
8540;SDS011;4308;51.294;6.590;2022-09-09T12:41:51;3.17;;;1.40;;
8540;SDS011;4308;51.294;6.590;2022-09-09T12:44:19;2.57;;;1.73;;
8540;SDS011;4308;51.294;6.590;2022-09-09T12:46:47;6.17;;;1.93;;
8540;SDS011;4308;51.294;6.590;2022-09-09T12:49:24;3.70;;;2.43;;
8540;SDS011;4308;51.294;6.590;2022-09-09T12:51:52;2.93;;;1.17;;
8540;SDS011;4308;51.294;6.590;2022-09-09T12:54:20;3.60;;;1.90;;
8540;SDS011;4308;51.294;6.590;2022-09-09T12:56:48;2.97;;;1.27;;
8540;SDS011;4308;51.294;6.590;2022-09-09T12:59:27;1.23;;;1.03;;
8540;SDS011;4308;51.294;6.590;2022-09-09T13:02:02;3.47;;;1.80;;
8540;SDS011;4308;51.294;6.590;2022-09-09T13:04:30;5.67;;;1.67;;
8540;SDS011;4308;51.294;6.590;2022-09-09T13:07:07;1.60;;;1.00;;
8540;SDS011;4308;51.294;6.590;2022-09-09T13:09:34;1.33;;;0.90;;
8540;SDS011;4308;51.294;6.590;2022-09-09T13:12:02;2.37;;;1.07;;
8540;SDS011;4308;51.294;6.590;2022-09-09T13:14:32;3.07;;;0.90;;
8540;SDS011;4308;51.294;6.590;2022-09-09T13:17:01;2.47;;;1.00;;
8540;SDS011;4308;51.294;6.590;2022-09-09T13:19:31;1.63;;;1.00;;
8540;SDS011;4308;51.294;6.590;2022-09-09T13:21:59;1.83;;;1.00;;
8540;SDS011;4308;51.294;6.590;2022-09-09T13:24:31;1.77;;;0.87;;
8540;SDS011;4308;51.294;6.590;2022-09-09T13:26:59;1.37;;;1.10;;
8540;SDS011;4308;51.294;6.590;2022-09-09T13:29:27;2.33;;;1.20;;
8540;SDS011;4308;51.294;6.590;2022-09-09T13:32:06;1.23;;;0.93;;
8540;SDS011;4308;51.294;6.590;2022-09-09T13:34:34;5.30;;;1.33;;
8540;SDS011;4308;51.294;6.590;2022-09-09T13:37:02;2.03;;;1.00;;
8540;SDS011;4308;51.294;6.590;2022-09-09T13:39:30;1.73;;;0.83;;
8540;SDS011;4308;51.294;6.590;2022-09-09T13:41:58;4.30;;;1.40;;
8540;SDS011;4308;51.294;6.590;2022-09-09T13:44:34;3.63;;;0.90;;
8540;SDS011;4308;51.294;6.590;2022-09-09T13:49:36;2.10;;;0.90;;
8540;SDS011;4308;51.294;6.590;2022-09-09T13:52:10;1.40;;;0.80;;
8540;SDS011;4308;51.294;6.590;2022-09-09T13:54:39;2.20;;;0.77;;
8540;SDS011;4308;51.294;6.590;2022-09-09T13:57:17;1.33;;;1.00;;
8540;SDS011;4308;51.294;6.590;2022-09-09T13:59:45;1.83;;;1.27;;
8540;SDS011;4308;51.294;6.590;2022-09-09T14:02:31;1.47;;;0.87;;
8540;SDS011;4308;51.294;6.590;2022-09-09T14:04:58;1.37;;;0.97;;
8540;SDS011;4308;51.294;6.590;2022-09-09T14:07:26;2.30;;;1.17;;
8540;SDS011;4308;51.294;6.590;2022-09-09T14:09:54;2.83;;;1.10;;
8540;SDS011;4308;51.294;6.590;2022-09-09T14:12:21;1.67;;;0.80;;
8540;SDS011;4308;51.294;6.590;2022-09-09T14:14:49;1.57;;;0.90;;
8540;SDS011;4308;51.294;6.590;2022-09-09T14:17:16;0.90;;;0.60;;
8540;SDS011;4308;51.294;6.590;2022-09-09T14:19:44;3.70;;;1.73;;
8540;SDS011;4308;51.294;6.590;2022-09-09T14:22:12;2.73;;;0.70;;
8540;SDS011;4308;51.294;6.590;2022-09-09T14:24:39;0.63;;;0.40;;
8540;SDS011;4308;51.294;6.590;2022-09-09T14:27:07;2.07;;;0.50;;
8540;SDS011;4308;51.294;6.590;2022-09-09T14:29:34;0.60;;;0.60;;
8540;SDS011;4308;51.294;6.590;2022-09-09T14:32:02;0.77;;;0.60;;
8540;SDS011;4308;51.294;6.590;2022-09-09T14:34:29;3.00;;;0.83;;
8540;SDS011;4308;51.294;6.590;2022-09-09T14:36:57;1.50;;;0.80;;
8540;SDS011;4308;51.294;6.590;2022-09-09T14:39:25;1.57;;;1.10;;
8540;SDS011;4308;51.294;6.590;2022-09-09T14:41:52;0.80;;;0.60;;
8540;SDS011;4308;51.294;6.590;2022-09-09T14:44:20;0.60;;;0.60;;
8540;SDS011;4308;51.294;6.590;2022-09-09T14:46:47;2.53;;;0.60;;
8540;SDS011;4308;51.294;6.590;2022-09-09T14:49:15;2.07;;;0.63;;
8540;SDS011;4308;51.294;6.590;2022-09-09T14:51:43;2.53;;;0.80;;
8540;SDS011;4308;51.294;6.590;2022-09-09T14:54:10;1.57;;;0.70;;
8540;SDS011;4308;51.294;6.590;2022-09-09T14:56:38;0.43;;;0.43;;
8540;SDS011;4308;51.294;6.590;2022-09-09T14:59:05;1.23;;;0.67;;
8540;SDS011;4308;51.294;6.590;2022-09-09T15:01:33;1.43;;;0.80;;
8540;SDS011;4308;51.294;6.590;2022-09-09T15:04:02;0.73;;;0.70;;
8540;SDS011;4308;51.294;6.590;2022-09-09T15:06:31;3.20;;;1.30;;
8540;SDS011;4308;51.294;6.590;2022-09-09T15:08:58;0.80;;;0.60;;
8540;SDS011;4308;51.294;6.590;2022-09-09T15:11:27;2.30;;;0.87;;
8540;SDS011;4308;51.294;6.590;2022-09-09T15:13:55;0.60;;;0.60;;
8540;SDS011;4308;51.294;6.590;2022-09-09T15:16:24;2.63;;;0.70;;
8540;SDS011;4308;51.294;6.590;2022-09-09T15:18:53;1.07;;;0.50;;
8540;SDS011;4308;51.294;6.590;2022-09-09T15:21:21;0.43;;;0.43;;
8540;SDS011;4308;51.294;6.590;2022-09-09T15:23:49;0.70;;;0.40;;
8540;SDS011;4308;51.294;6.590;2022-09-09T15:26:17;0.53;;;0.40;;
8540;SDS011;4308;51.294;6.590;2022-09-09T15:28:45;0.40;;;0.40;;
8540;SDS011;4308;51.294;6.590;2022-09-09T15:33:40;0.40;;;0.40;;
8540;SDS011;4308;51.294;6.590;2022-09-09T15:36:15;0.43;;;0.43;;
8540;SDS011;4308;51.294;6.590;2022-09-09T15:38:43;1.23;;;0.47;;
8540;SDS011;4308;51.294;6.590;2022-09-09T15:41:12;0.63;;;0.40;;
8540;SDS011;4308;51.294;6.590;2022-09-09T15:43:43;0.33;;;0.30;;
8540;SDS011;4308;51.294;6.590;2022-09-09T15:48:45;0.40;;;0.40;;
8540;SDS011;4308;51.294;6.590;2022-09-09T15:51:16;1.07;;;0.60;;
8540;SDS011;4308;51.294;6.590;2022-09-09T15:54:04;0.97;;;0.60;;
8540;SDS011;4308;51.294;6.590;2022-09-09T15:56:32;1.13;;;0.53;;
8540;SDS011;4308;51.294;6.590;2022-09-09T15:59:00;1.33;;;0.70;;
8540;SDS011;4308;51.294;6.590;2022-09-09T16:01:28;0.83;;;0.43;;
8540;SDS011;4308;51.294;6.590;2022-09-09T16:03:56;0.67;;;0.67;;
8540;SDS011;4308;51.294;6.590;2022-09-09T16:06:24;0.70;;;0.70;;
8540;SDS011;4308;51.294;6.590;2022-09-09T16:08:52;2.27;;;0.70;;
8540;SDS011;4308;51.294;6.590;2022-09-09T16:11:27;1.33;;;0.60;;
8540;SDS011;4308;51.294;6.590;2022-09-09T16:13:55;1.03;;;0.70;;
8540;SDS011;4308;51.294;6.590;2022-09-09T16:16:23;2.93;;;1.00;;
8540;SDS011;4308;51.294;6.590;2022-09-09T16:18:53;3.13;;;1.07;;
8540;SDS011;4308;51.294;6.590;2022-09-09T16:21:30;1.47;;;0.90;;
8540;SDS011;4308;51.294;6.590;2022-09-09T16:23:59;1.83;;;0.90;;
8540;SDS011;4308;51.294;6.590;2022-09-09T16:26:27;2.50;;;0.80;;
8540;SDS011;4308;51.294;6.590;2022-09-09T16:28:55;3.63;;;0.90;;
8540;SDS011;4308;51.294;6.590;2022-09-09T16:31:23;1.80;;;1.00;;
8540;SDS011;4308;51.294;6.590;2022-09-09T16:33:50;3.70;;;1.03;;
8540;SDS011;4308;51.294;6.590;2022-09-09T16:36:22;4.77;;;1.03;;
8540;SDS011;4308;51.294;6.590;2022-09-09T16:38:54;5.37;;;1.20;;
8540;SDS011;4308;51.294;6.590;2022-09-09T16:41:22;2.73;;;0.67;;
8540;SDS011;4308;51.294;6.590;2022-09-09T16:43:53;1.47;;;0.70;;
8540;SDS011;4308;51.294;6.590;2022-09-09T16:46:21;6.83;;;1.33;;
8540;SDS011;4308;51.294;6.590;2022-09-09T16:48:49;3.40;;;1.27;;
8540;SDS011;4308;51.294;6.590;2022-09-09T16:51:21;2.13;;;0.90;;
8540;SDS011;4308;51.294;6.590;2022-09-09T16:53:49;3.90;;;2.03;;
8540;SDS011;4308;51.294;6.590;2022-09-09T16:56:17;3.60;;;1.10;;
8540;SDS011;4308;51.294;6.590;2022-09-09T16:58:49;4.10;;;0.90;;
8540;SDS011;4308;51.294;6.590;2022-09-09T17:01:17;5.37;;;0.90;;
8540;SDS011;4308;51.294;6.590;2022-09-09T17:03:45;2.67;;;1.00;;
8540;SDS011;4308;51.294;6.590;2022-09-09T17:06:13;2.70;;;1.10;;
8540;SDS011;4308;51.294;6.590;2022-09-09T17:08:44;1.87;;;1.37;;
8540;SDS011;4308;51.294;6.590;2022-09-09T17:11:12;2.60;;;1.00;;
8540;SDS011;4308;51.294;6.590;2022-09-09T17:13:41;2.30;;;1.30;;
8540;SDS011;4308;51.294;6.590;2022-09-09T17:16:09;2.50;;;1.00;;
8540;SDS011;4308;51.294;6.590;2022-09-09T17:18:36;1.77;;;1.00;;
8540;SDS011;4308;51.294;6.590;2022-09-09T17:21:05;2.60;;;0.93;;
8540;SDS011;4308;51.294;6.590;2022-09-09T17:23:33;2.93;;;1.10;;
8540;SDS011;4308;51.294;6.590;2022-09-09T17:26:01;3.50;;;0.90;;
8540;SDS011;4308;51.294;6.590;2022-09-09T17:28:28;1.97;;;1.13;;
8540;SDS011;4308;51.294;6.590;2022-09-09T17:30:59;2.77;;;1.30;;
8540;SDS011;4308;51.294;6.590;2022-09-09T17:33:27;2.93;;;1.23;;
8540;SDS011;4308;51.294;6.590;2022-09-09T17:35:55;1.63;;;1.40;;
8540;SDS011;4308;51.294;6.590;2022-09-09T17:38:22;2.47;;;1.03;;
8540;SDS011;4308;51.294;6.590;2022-09-09T17:41:01;2.73;;;1.23;;
8540;SDS011;4308;51.294;6.590;2022-09-09T17:43:29;1.73;;;1.00;;
8540;SDS011;4308;51.294;6.590;2022-09-09T17:46:13;1.17;;;0.93;;
8540;SDS011;4308;51.294;6.590;2022-09-09T17:48:41;4.40;;;1.47;;
8540;SDS011;4308;51.294;6.590;2022-09-09T17:51:11;2.40;;;1.30;;
8540;SDS011;4308;51.294;6.590;2022-09-09T17:53:43;9.10;;;2.13;;